sensor_id;sensor_type;location;lat;lon;timestamp;temperature;humidity
53978;DHT22;39886;47.984;-1.586;2024-01-25T00:01:08;19.20;83.20
53978;DHT22;39886;47.984;-1.586;2024-01-25T00:03:35;19.20;83.20
53978;DHT22;39886;47.984;-1.586;2024-01-25T00:06:00;19.20;83.20
53978;DHT22;39886;47.984;-1.586;2024-01-25T00:08:26;19.20;83.30
53978;DHT22;39886;47.984;-1.586;2024-01-25T00:10:52;19.20;83.20
53978;DHT22;39886;47.984;-1.586;2024-01-25T00:13:17;19.20;83.20
53978;DHT22;39886;47.984;-1.586;2024-01-25T00:15:43;19.10;83.20
53978;DHT22;39886;47.984;-1.586;2024-01-25T00:18:09;19.10;83.20
53978;DHT22;39886;47.984;-1.586;2024-01-25T00:20:35;19.20;83.20
53978;DHT22;39886;47.984;-1.586;2024-01-25T00:23:00;19.20;83.20
53978;DHT22;39886;47.984;-1.586;2024-01-25T00:25:26;19.10;83.20
53978;DHT22;39886;47.984;-1.586;2024-01-25T00:27:52;19.10;83.10
53978;DHT22;39886;47.984;-1.586;2024-01-25T00:30:18;19.10;83.10
53978;DHT22;39886;47.984;-1.586;2024-01-25T00:32:43;19.10;83.10
53978;DHT22;39886;47.984;-1.586;2024-01-25T00:35:10;19.10;83.20
53978;DHT22;39886;47.984;-1.586;2024-01-25T00:37:37;19.10;83.10
53978;DHT22;39886;47.984;-1.586;2024-01-25T00:40:03;19.10;83.10
53978;DHT22;39886;47.984;-1.586;2024-01-25T00:42:30;19.10;83.10
53978;DHT22;39886;47.984;-1.586;2024-01-25T00:44:56;19.10;83.10
53978;DHT22;39886;47.984;-1.586;2024-01-25T00:47:23;19.10;83.20
53978;DHT22;39886;47.984;-1.586;2024-01-25T00:49:48;19.10;83.20
53978;DHT22;39886;47.984;-1.586;2024-01-25T00:52:14;19.10;83.10
53978;DHT22;39886;47.984;-1.586;2024-01-25T00:54:40;19.10;83.70
53978;DHT22;39886;47.984;-1.586;2024-01-25T00:57:07;19.10;83.10
53978;DHT22;39886;47.984;-1.586;2024-01-25T00:59:33;19.10;83.20
53978;DHT22;39886;47.984;-1.586;2024-01-25T01:01:59;19.10;83.10
53978;DHT22;39886;47.984;-1.586;2024-01-25T01:04:26;19.10;83.10
53978;DHT22;39886;47.984;-1.586;2024-01-25T01:06:52;19.10;83.10
53978;DHT22;39886;47.984;-1.586;2024-01-25T01:09:18;19.10;83.10
53978;DHT22;39886;47.984;-1.586;2024-01-25T01:11:44;19.00;83.10
53978;DHT22;39886;47.984;-1.586;2024-01-25T01:14:09;19.10;83.10
53978;DHT22;39886;47.984;-1.586;2024-01-25T01:16:35;19.10;83.10
53978;DHT22;39886;47.984;-1.586;2024-01-25T01:19:01;19.10;83.10
53978;DHT22;39886;47.984;-1.586;2024-01-25T01:21:32;19.00;83.00
53978;DHT22;39886;47.984;-1.586;2024-01-25T01:23:58;19.10;83.00
53978;DHT22;39886;47.984;-1.586;2024-01-25T01:26:24;19.00;83.00
53978;DHT22;39886;47.984;-1.586;2024-01-25T01:28:49;19.00;83.00
53978;DHT22;39886;47.984;-1.586;2024-01-25T01:31:15;19.00;83.00
53978;DHT22;39886;47.984;-1.586;2024-01-25T01:33:41;19.00;83.00
53978;DHT22;39886;47.984;-1.586;2024-01-25T01:36:06;19.00;83.00
53978;DHT22;39886;47.984;-1.586;2024-01-25T01:38:32;19.00;83.00
53978;DHT22;39886;47.984;-1.586;2024-01-25T01:40:58;19.00;83.00
53978;DHT22;39886;47.984;-1.586;2024-01-25T01:43:23;19.00;83.00
53978;DHT22;39886;47.984;-1.586;2024-01-25T01:45:49;19.00;83.00
53978;DHT22;39886;47.984;-1.586;2024-01-25T01:48:16;19.00;83.00
53978;DHT22;39886;47.984;-1.586;2024-01-25T01:50:45;19.00;83.00
53978;DHT22;39886;47.984;-1.586;2024-01-25T01:53:11;19.00;83.00
53978;DHT22;39886;47.984;-1.586;2024-01-25T01:55:39;19.00;83.00
53978;DHT22;39886;47.984;-1.586;2024-01-25T01:58:05;19.00;83.00
53978;DHT22;39886;47.984;-1.586;2024-01-25T02:00:32;19.00;82.90
53978;DHT22;39886;47.984;-1.586;2024-01-25T02:02:59;19.00;82.90
53978;DHT22;39886;47.984;-1.586;2024-01-25T02:05:24;19.00;82.90
53978;DHT22;39886;47.984;-1.586;2024-01-25T02:07:50;19.00;82.90
53978;DHT22;39886;47.984;-1.586;2024-01-25T02:10:18;19.00;82.90
53978;DHT22;39886;47.984;-1.586;2024-01-25T02:12:43;19.00;82.90
53978;DHT22;39886;47.984;-1.586;2024-01-25T02:15:09;19.00;82.90
53978;DHT22;39886;47.984;-1.586;2024-01-25T02:17:35;19.00;82.90
53978;DHT22;39886;47.984;-1.586;2024-01-25T02:20:01;19.00;83.00
53978;DHT22;39886;47.984;-1.586;2024-01-25T02:22:28;19.00;82.90
53978;DHT22;39886;47.984;-1.586;2024-01-25T02:24:54;19.00;83.50
53978;DHT22;39886;47.984;-1.586;2024-01-25T02:27:20;19.00;82.90
53978;DHT22;39886;47.984;-1.586;2024-01-25T02:29:46;19.00;82.90
53978;DHT22;39886;47.984;-1.586;2024-01-25T02:32:11;19.00;82.90
53978;DHT22;39886;47.984;-1.586;2024-01-25T02:34:37;18.90;82.90
53978;DHT22;39886;47.984;-1.586;2024-01-25T02:37:03;18.90;82.80
53978;DHT22;39886;47.984;-1.586;2024-01-25T02:39:29;18.90;82.80
53978;DHT22;39886;47.984;-1.586;2024-01-25T02:41:54;18.90;82.80
53978;DHT22;39886;47.984;-1.586;2024-01-25T02:44:20;18.90;82.80
53978;DHT22;39886;47.984;-1.586;2024-01-25T02:46:46;18.90;82.80
53978;DHT22;39886;47.984;-1.586;2024-01-25T02:49:12;18.90;82.80
53978;DHT22;39886;47.984;-1.586;2024-01-25T02:51:38;18.90;82.80
53978;DHT22;39886;47.984;-1.586;2024-01-25T02:54:03;18.90;82.80
53978;DHT22;39886;47.984;-1.586;2024-01-25T02:56:29;18.90;82.80
53978;DHT22;39886;47.984;-1.586;2024-01-25T02:59:01;18.90;82.80
53978;DHT22;39886;47.984;-1.586;2024-01-25T03:01:26;18.90;82.80
53978;DHT22;39886;47.984;-1.586;2024-01-25T03:03:53;18.90;82.80
53978;DHT22;39886;47.984;-1.586;2024-01-25T03:06:19;18.90;82.80
53978;DHT22;39886;47.984;-1.586;2024-01-25T03:08:45;18.90;82.80
53978;DHT22;39886;47.984;-1.586;2024-01-25T03:11:11;18.90;82.80
53978;DHT22;39886;47.984;-1.586;2024-01-25T03:13:36;18.90;82.80
53978;DHT22;39886;47.984;-1.586;2024-01-25T03:16:02;18.90;82.70
53978;DHT22;39886;47.984;-1.586;2024-01-25T03:18:28;18.90;82.70
53978;DHT22;39886;47.984;-1.586;2024-01-25T03:20:54;18.90;82.80
53978;DHT22;39886;47.984;-1.586;2024-01-25T03:23:19;18.90;82.70
53978;DHT22;39886;47.984;-1.586;2024-01-25T03:25:45;18.90;82.70
53978;DHT22;39886;47.984;-1.586;2024-01-25T03:28:11;18.90;82.70
53978;DHT22;39886;47.984;-1.586;2024-01-25T03:30:38;18.90;82.70
53978;DHT22;39886;47.984;-1.586;2024-01-25T03:33:04;18.90;82.70
53978;DHT22;39886;47.984;-1.586;2024-01-25T03:35:30;18.90;82.70
53978;DHT22;39886;47.984;-1.586;2024-01-25T03:37:55;18.90;82.70
53978;DHT22;39886;47.984;-1.586;2024-01-25T03:40:21;18.90;82.70
53978;DHT22;39886;47.984;-1.586;2024-01-25T03:42:47;18.90;82.70
53978;DHT22;39886;47.984;-1.586;2024-01-25T03:45:12;18.90;82.70
53978;DHT22;39886;47.984;-1.586;2024-01-25T03:47:38;18.90;82.70
53978;DHT22;39886;47.984;-1.586;2024-01-25T03:50:04;18.90;82.70
53978;DHT22;39886;47.984;-1.586;2024-01-25T03:52:30;18.90;82.70
53978;DHT22;39886;47.984;-1.586;2024-01-25T03:54:56;18.80;82.60
53978;DHT22;39886;47.984;-1.586;2024-01-25T03:57:22;18.80;82.70
53978;DHT22;39886;47.984;-1.586;2024-01-25T03:59:48;18.80;82.60
53978;DHT22;39886;47.984;-1.586;2024-01-25T04:02:14;18.80;82.60
53978;DHT22;39886;47.984;-1.586;2024-01-25T04:04:39;18.80;82.60
53978;DHT22;39886;47.984;-1.586;2024-01-25T04:07:05;18.80;82.50
53978;DHT22;39886;47.984;-1.586;2024-01-25T04:09:31;18.80;82.50
53978;DHT22;39886;47.984;-1.586;2024-01-25T04:11:56;18.80;82.50
53978;DHT22;39886;47.984;-1.586;2024-01-25T04:14:22;18.80;82.50
53978;DHT22;39886;47.984;-1.586;2024-01-25T04:16:49;18.80;82.50
53978;DHT22;39886;47.984;-1.586;2024-01-25T04:19:15;18.80;82.50
53978;DHT22;39886;47.984;-1.586;2024-01-25T04:21:41;18.80;82.50
53978;DHT22;39886;47.984;-1.586;2024-01-25T04:24:06;18.80;82.50
53978;DHT22;39886;47.984;-1.586;2024-01-25T04:26:32;18.80;82.50
53978;DHT22;39886;47.984;-1.586;2024-01-25T04:28:58;18.80;82.50
53978;DHT22;39886;47.984;-1.586;2024-01-25T04:31:23;18.80;82.50
53978;DHT22;39886;47.984;-1.586;2024-01-25T04:33:49;18.80;82.50
53978;DHT22;39886;47.984;-1.586;2024-01-25T04:36:15;18.80;82.50
53978;DHT22;39886;47.984;-1.586;2024-01-25T04:38:40;18.80;82.50
53978;DHT22;39886;47.984;-1.586;2024-01-25T04:41:06;18.70;83.10
53978;DHT22;39886;47.984;-1.586;2024-01-25T04:43:35;18.70;82.40
53978;DHT22;39886;47.984;-1.586;2024-01-25T04:46:04;18.70;82.40
53978;DHT22;39886;47.984;-1.586;2024-01-25T04:48:30;18.70;82.40
53978;DHT22;39886;47.984;-1.586;2024-01-25T04:50:57;18.80;82.50
53978;DHT22;39886;47.984;-1.586;2024-01-25T04:53:24;18.70;82.40
53978;DHT22;39886;47.984;-1.586;2024-01-25T04:55:49;18.70;82.40
53978;DHT22;39886;47.984;-1.586;2024-01-25T04:58:15;18.70;82.40
53978;DHT22;39886;47.984;-1.586;2024-01-25T05:00:41;18.70;82.40
53978;DHT22;39886;47.984;-1.586;2024-01-25T05:03:06;18.70;82.40
53978;DHT22;39886;47.984;-1.586;2024-01-25T05:05:32;18.70;82.40
53978;DHT22;39886;47.984;-1.586;2024-01-25T05:07:58;18.70;83.00
53978;DHT22;39886;47.984;-1.586;2024-01-25T05:10:23;18.70;82.40
53978;DHT22;39886;47.984;-1.586;2024-01-25T05:12:51;18.70;82.30
53978;DHT22;39886;47.984;-1.586;2024-01-25T05:15:16;18.70;82.40
53978;DHT22;39886;47.984;-1.586;2024-01-25T05:17:42;18.70;82.30
53978;DHT22;39886;47.984;-1.586;2024-01-25T05:20:08;18.70;82.30
53978;DHT22;39886;47.984;-1.586;2024-01-25T05:22:34;18.70;82.40
53978;DHT22;39886;47.984;-1.586;2024-01-25T05:25:06;18.70;82.30
53978;DHT22;39886;47.984;-1.586;2024-01-25T05:27:36;18.70;82.30
53978;DHT22;39886;47.984;-1.586;2024-01-25T05:30:02;18.70;82.30
53978;DHT22;39886;47.984;-1.586;2024-01-25T05:32:28;18.60;82.30
53978;DHT22;39886;47.984;-1.586;2024-01-25T05:34:54;18.60;82.30
53978;DHT22;39886;47.984;-1.586;2024-01-25T05:37:20;18.70;82.30
53978;DHT22;39886;47.984;-1.586;2024-01-25T05:39:46;18.60;82.30
53978;DHT22;39886;47.984;-1.586;2024-01-25T05:42:12;18.60;82.30
53978;DHT22;39886;47.984;-1.586;2024-01-25T05:44:37;18.60;82.20
53978;DHT22;39886;47.984;-1.586;2024-01-25T05:47:03;18.60;82.20
53978;DHT22;39886;47.984;-1.586;2024-01-25T05:49:29;18.60;82.30
53978;DHT22;39886;47.984;-1.586;2024-01-25T05:51:54;18.60;82.20
53978;DHT22;39886;47.984;-1.586;2024-01-25T05:54:20;18.60;82.20
53978;DHT22;39886;47.984;-1.586;2024-01-25T05:56:46;18.60;82.30
53978;DHT22;39886;47.984;-1.586;2024-01-25T05:59:31;18.60;82.20
53978;DHT22;39886;47.984;-1.586;2024-01-25T06:01:57;18.60;82.20
53978;DHT22;39886;47.984;-1.586;2024-01-25T06:04:22;18.60;82.20
53978;DHT22;39886;47.984;-1.586;2024-01-25T06:06:48;18.60;82.20
53978;DHT22;39886;47.984;-1.586;2024-01-25T06:09:14;18.60;82.20
53978;DHT22;39886;47.984;-1.586;2024-01-25T06:11:42;18.60;82.20
53978;DHT22;39886;47.984;-1.586;2024-01-25T06:14:08;18.60;82.20
53978;DHT22;39886;47.984;-1.586;2024-01-25T06:16:34;18.60;82.20
53978;DHT22;39886;47.984;-1.586;2024-01-25T06:19:01;18.60;82.20
53978;DHT22;39886;47.984;-1.586;2024-01-25T06:21:27;18.60;82.20
53978;DHT22;39886;47.984;-1.586;2024-01-25T06:23:53;18.60;82.10
53978;DHT22;39886;47.984;-1.586;2024-01-25T06:26:19;18.80;81.80
53978;DHT22;39886;47.984;-1.586;2024-01-25T06:28:45;18.90;81.20
53978;DHT22;39886;47.984;-1.586;2024-01-25T06:31:11;19.10;80.70
53978;DHT22;39886;47.984;-1.586;2024-01-25T06:33:36;19.20;80.20
53978;DHT22;39886;47.984;-1.586;2024-01-25T06:36:02;19.40;79.80
53978;DHT22;39886;47.984;-1.586;2024-01-25T06:38:28;19.50;79.40
53978;DHT22;39886;47.984;-1.586;2024-01-25T06:40:54;19.50;79.10
53978;DHT22;39886;47.984;-1.586;2024-01-25T06:43:19;19.60;78.80
53978;DHT22;39886;47.984;-1.586;2024-01-25T06:45:45;19.70;78.60
53978;DHT22;39886;47.984;-1.586;2024-01-25T06:48:11;19.80;78.50
53978;DHT22;39886;47.984;-1.586;2024-01-25T06:50:37;19.90;78.20
53978;DHT22;39886;47.984;-1.586;2024-01-25T06:53:03;20.00;78.10
53978;DHT22;39886;47.984;-1.586;2024-01-25T06:55:29;20.10;77.90
53978;DHT22;39886;47.984;-1.586;2024-01-25T06:57:55;20.10;77.60
53978;DHT22;39886;47.984;-1.586;2024-01-25T07:00:21;20.20;77.60
53978;DHT22;39886;47.984;-1.586;2024-01-25T07:02:48;20.20;77.40
53978;DHT22;39886;47.984;-1.586;2024-01-25T07:05:14;20.30;77.40
53978;DHT22;39886;47.984;-1.586;2024-01-25T07:07:39;20.40;77.00
53978;DHT22;39886;47.984;-1.586;2024-01-25T07:10:08;20.40;76.90
53978;DHT22;39886;47.984;-1.586;2024-01-25T07:12:34;20.40;76.60
53978;DHT22;39886;47.984;-1.586;2024-01-25T07:14:59;20.50;76.60
53978;DHT22;39886;47.984;-1.586;2024-01-25T07:17:25;20.60;76.30
53978;DHT22;39886;47.984;-1.586;2024-01-25T07:19:51;20.60;76.00
53978;DHT22;39886;47.984;-1.586;2024-01-25T07:22:17;20.60;76.10
53978;DHT22;39886;47.984;-1.586;2024-01-25T07:24:44;20.60;76.20
53978;DHT22;39886;47.984;-1.586;2024-01-25T07:27:10;20.70;76.20
53978;DHT22;39886;47.984;-1.586;2024-01-25T07:29:36;20.70;75.80
53978;DHT22;39886;47.984;-1.586;2024-01-25T07:32:02;20.80;75.80
53978;DHT22;39886;47.984;-1.586;2024-01-25T07:34:28;20.80;75.30
53978;DHT22;39886;47.984;-1.586;2024-01-25T07:36:54;20.90;75.10
53978;DHT22;39886;47.984;-1.586;2024-01-25T07:39:20;20.90;75.30
53978;DHT22;39886;47.984;-1.586;2024-01-25T07:41:45;20.90;75.40
53978;DHT22;39886;47.984;-1.586;2024-01-25T07:44:12;21.00;75.40
53978;DHT22;39886;47.984;-1.586;2024-01-25T07:46:38;21.00;75.30
53978;DHT22;39886;47.984;-1.586;2024-01-25T07:49:04;21.10;75.00
53978;DHT22;39886;47.984;-1.586;2024-01-25T07:51:30;21.20;74.80
53978;DHT22;39886;47.984;-1.586;2024-01-25T07:53:56;21.20;74.60
53978;DHT22;39886;47.984;-1.586;2024-01-25T07:56:22;21.30;74.50
53978;DHT22;39886;47.984;-1.586;2024-01-25T07:58:50;21.30;74.60
53978;DHT22;39886;47.984;-1.586;2024-01-25T08:01:20;21.30;74.90
53978;DHT22;39886;47.984;-1.586;2024-01-25T08:03:46;21.30;75.00
53978;DHT22;39886;47.984;-1.586;2024-01-25T08:06:12;21.40;75.00
53978;DHT22;39886;47.984;-1.586;2024-01-25T08:08:38;21.40;75.20
53978;DHT22;39886;47.984;-1.586;2024-01-25T08:11:03;21.50;74.50
53978;DHT22;39886;47.984;-1.586;2024-01-25T08:13:33;21.50;75.20
53978;DHT22;39886;47.984;-1.586;2024-01-25T08:15:59;21.50;75.40
53978;DHT22;39886;47.984;-1.586;2024-01-25T08:18:25;21.60;75.20
53978;DHT22;39886;47.984;-1.586;2024-01-25T08:20:54;21.60;74.90
53978;DHT22;39886;47.984;-1.586;2024-01-25T08:23:21;21.60;75.00
53978;DHT22;39886;47.984;-1.586;2024-01-25T08:25:47;21.50;75.40
53978;DHT22;39886;47.984;-1.586;2024-01-25T08:28:12;21.40;76.50
53978;DHT22;39886;47.984;-1.586;2024-01-25T08:30:38;21.30;76.60
53978;DHT22;39886;47.984;-1.586;2024-01-25T08:33:04;21.30;76.90
53978;DHT22;39886;47.984;-1.586;2024-01-25T08:35:30;21.20;77.00
53978;DHT22;39886;47.984;-1.586;2024-01-25T08:37:58;21.10;77.70
53978;DHT22;39886;47.984;-1.586;2024-01-25T08:40:24;21.10;77.40
53978;DHT22;39886;47.984;-1.586;2024-01-25T08:42:49;21.10;77.70
53978;DHT22;39886;47.984;-1.586;2024-01-25T08:45:15;21.10;77.80
53978;DHT22;39886;47.984;-1.586;2024-01-25T08:47:41;21.00;77.90
53978;DHT22;39886;47.984;-1.586;2024-01-25T08:50:07;21.10;78.20
53978;DHT22;39886;47.984;-1.586;2024-01-25T08:52:36;21.10;78.00
53978;DHT22;39886;47.984;-1.586;2024-01-25T08:55:04;21.00;78.20
53978;DHT22;39886;47.984;-1.586;2024-01-25T08:57:31;21.00;78.30
53978;DHT22;39886;47.984;-1.586;2024-01-25T08:59:56;21.00;78.50
53978;DHT22;39886;47.984;-1.586;2024-01-25T09:02:24;21.00;78.50
53978;DHT22;39886;47.984;-1.586;2024-01-25T09:04:52;21.00;78.20
53978;DHT22;39886;47.984;-1.586;2024-01-25T09:07:19;21.00;78.40
53978;DHT22;39886;47.984;-1.586;2024-01-25T09:09:45;21.00;78.60
53978;DHT22;39886;47.984;-1.586;2024-01-25T09:12:11;21.00;78.70
53978;DHT22;39886;47.984;-1.586;2024-01-25T09:14:38;21.00;78.70
53978;DHT22;39886;47.984;-1.586;2024-01-25T09:17:04;21.00;78.70
53978;DHT22;39886;47.984;-1.586;2024-01-25T09:19:30;21.00;78.80
53978;DHT22;39886;47.984;-1.586;2024-01-25T09:21:56;21.00;78.70
53978;DHT22;39886;47.984;-1.586;2024-01-25T09:24:25;21.00;78.70
53978;DHT22;39886;47.984;-1.586;2024-01-25T09:26:51;20.90;78.90
53978;DHT22;39886;47.984;-1.586;2024-01-25T09:29:16;20.90;78.90
53978;DHT22;39886;47.984;-1.586;2024-01-25T09:31:42;20.90;78.70
53978;DHT22;39886;47.984;-1.586;2024-01-25T09:34:08;20.90;78.90
53978;DHT22;39886;47.984;-1.586;2024-01-25T09:36:33;20.80;79.00
53978;DHT22;39886;47.984;-1.586;2024-01-25T09:38:59;20.80;79.40
53978;DHT22;39886;47.984;-1.586;2024-01-25T09:41:25;20.80;79.40
53978;DHT22;39886;47.984;-1.586;2024-01-25T09:43:50;20.70;79.60
53978;DHT22;39886;47.984;-1.586;2024-01-25T09:46:16;20.70;79.40
53978;DHT22;39886;47.984;-1.586;2024-01-25T09:48:43;20.70;79.70
53978;DHT22;39886;47.984;-1.586;2024-01-25T09:51:11;20.70;79.90
53978;DHT22;39886;47.984;-1.586;2024-01-25T09:53:37;20.70;79.70
53978;DHT22;39886;47.984;-1.586;2024-01-25T09:56:06;20.80;79.90
53978;DHT22;39886;47.984;-1.586;2024-01-25T09:58:41;20.70;79.90
53978;DHT22;39886;47.984;-1.586;2024-01-25T10:01:09;20.80;80.50
53978;DHT22;39886;47.984;-1.586;2024-01-25T10:03:47;20.80;80.40
53978;DHT22;39886;47.984;-1.586;2024-01-25T10:06:13;20.80;80.50
53978;DHT22;39886;47.984;-1.586;2024-01-25T10:08:39;20.80;80.50
53978;DHT22;39886;47.984;-1.586;2024-01-25T10:11:06;20.90;80.40
53978;DHT22;39886;47.984;-1.586;2024-01-25T10:13:43;20.90;80.40
53978;DHT22;39886;47.984;-1.586;2024-01-25T10:16:13;20.90;80.80
53978;DHT22;39886;47.984;-1.586;2024-01-25T10:18:41;20.90;80.90
53978;DHT22;39886;47.984;-1.586;2024-01-25T10:21:09;21.00;80.40
53978;DHT22;39886;47.984;-1.586;2024-01-25T10:23:35;21.00;80.30
53978;DHT22;39886;47.984;-1.586;2024-01-25T10:26:02;21.00;80.50
53978;DHT22;39886;47.984;-1.586;2024-01-25T10:28:28;21.00;80.50
53978;DHT22;39886;47.984;-1.586;2024-01-25T10:31:00;21.00;80.70
53978;DHT22;39886;47.984;-1.586;2024-01-25T10:33:27;21.00;81.00
53978;DHT22;39886;47.984;-1.586;2024-01-25T10:35:56;21.10;81.50
53978;DHT22;39886;47.984;-1.586;2024-01-25T10:38:30;21.10;82.20
53978;DHT22;39886;47.984;-1.586;2024-01-25T10:41:00;21.10;81.30
53978;DHT22;39886;47.984;-1.586;2024-01-25T10:43:27;21.10;82.00
53978;DHT22;39886;47.984;-1.586;2024-01-25T10:45:53;21.10;81.30
53978;DHT22;39886;47.984;-1.586;2024-01-25T10:48:23;21.10;81.40
53978;DHT22;39886;47.984;-1.586;2024-01-25T10:50:49;21.10;81.50
53978;DHT22;39886;47.984;-1.586;2024-01-25T10:53:18;21.10;81.40
53978;DHT22;39886;47.984;-1.586;2024-01-25T10:55:44;21.10;81.70
53978;DHT22;39886;47.984;-1.586;2024-01-25T10:58:13;21.10;81.80
53978;DHT22;39886;47.984;-1.586;2024-01-25T11:00:39;21.10;81.90
53978;DHT22;39886;47.984;-1.586;2024-01-25T11:03:06;21.10;81.90
53978;DHT22;39886;47.984;-1.586;2024-01-25T11:05:32;21.10;81.70
53978;DHT22;39886;47.984;-1.586;2024-01-25T11:07:58;21.10;81.70
53978;DHT22;39886;47.984;-1.586;2024-01-25T11:10:28;21.20;81.50
53978;DHT22;39886;47.984;-1.586;2024-01-25T11:13:00;21.10;81.70
53978;DHT22;39886;47.984;-1.586;2024-01-25T11:15:30;21.20;81.70
53978;DHT22;39886;47.984;-1.586;2024-01-25T11:17:57;21.10;81.70
53978;DHT22;39886;47.984;-1.586;2024-01-25T11:20:24;21.10;81.70
53978;DHT22;39886;47.984;-1.586;2024-01-25T11:22:56;21.10;81.50
53978;DHT22;39886;47.984;-1.586;2024-01-25T11:25:22;21.20;81.50
53978;DHT22;39886;47.984;-1.586;2024-01-25T11:27:51;21.10;81.80
53978;DHT22;39886;47.984;-1.586;2024-01-25T11:30:20;21.10;81.70
53978;DHT22;39886;47.984;-1.586;2024-01-25T11:32:49;21.10;81.90
53978;DHT22;39886;47.984;-1.586;2024-01-25T11:35:15;21.10;81.30
53978;DHT22;39886;47.984;-1.586;2024-01-25T11:37:47;21.10;81.30
53978;DHT22;39886;47.984;-1.586;2024-01-25T11:40:14;21.10;81.30
53978;DHT22;39886;47.984;-1.586;2024-01-25T11:42:42;21.10;81.60
53978;DHT22;39886;47.984;-1.586;2024-01-25T11:45:10;21.00;81.60
53978;DHT22;39886;47.984;-1.586;2024-01-25T11:47:37;21.00;81.70
53978;DHT22;39886;47.984;-1.586;2024-01-25T11:50:04;21.00;81.80
53978;DHT22;39886;47.984;-1.586;2024-01-25T11:52:31;20.90;81.70
53978;DHT22;39886;47.984;-1.586;2024-01-25T11:55:06;21.00;81.60
53978;DHT22;39886;47.984;-1.586;2024-01-25T11:57:33;20.90;81.40
53978;DHT22;39886;47.984;-1.586;2024-01-25T12:00:00;20.90;81.40
53978;DHT22;39886;47.984;-1.586;2024-01-25T12:02:26;20.90;81.50
53978;DHT22;39886;47.984;-1.586;2024-01-25T12:04:52;20.90;81.50
53978;DHT22;39886;47.984;-1.586;2024-01-25T12:07:20;20.80;81.50
53978;DHT22;39886;47.984;-1.586;2024-01-25T12:09:58;20.80;81.60
53978;DHT22;39886;47.984;-1.586;2024-01-25T12:12:23;20.70;81.60
53978;DHT22;39886;47.984;-1.586;2024-01-25T12:14:49;20.70;81.70
53978;DHT22;39886;47.984;-1.586;2024-01-25T12:17:15;20.70;81.70
53978;DHT22;39886;47.984;-1.586;2024-01-25T12:19:40;20.70;81.80
53978;DHT22;39886;47.984;-1.586;2024-01-25T12:22:06;20.60;81.80
53978;DHT22;39886;47.984;-1.586;2024-01-25T12:24:32;20.60;82.00
53978;DHT22;39886;47.984;-1.586;2024-01-25T12:26:59;20.60;82.10
53978;DHT22;39886;47.984;-1.586;2024-01-25T12:29:24;20.60;82.10
53978;DHT22;39886;47.984;-1.586;2024-01-25T12:31:50;20.60;82.20
53978;DHT22;39886;47.984;-1.586;2024-01-25T12:34:16;20.60;81.90
53978;DHT22;39886;47.984;-1.586;2024-01-25T12:36:41;20.60;82.20
53978;DHT22;39886;47.984;-1.586;2024-01-25T12:39:08;20.60;82.10
53978;DHT22;39886;47.984;-1.586;2024-01-25T12:41:35;20.60;82.00
53978;DHT22;39886;47.984;-1.586;2024-01-25T12:44:00;20.60;82.00
53978;DHT22;39886;47.984;-1.586;2024-01-25T12:46:26;20.60;83.70
53978;DHT22;39886;47.984;-1.586;2024-01-25T12:48:52;20.60;82.10
53978;DHT22;39886;47.984;-1.586;2024-01-25T12:51:20;20.60;81.80
53978;DHT22;39886;47.984;-1.586;2024-01-25T12:53:48;20.60;81.90
53978;DHT22;39886;47.984;-1.586;2024-01-25T12:56:14;20.70;82.10
53978;DHT22;39886;47.984;-1.586;2024-01-25T12:58:40;20.70;81.90
53978;DHT22;39886;47.984;-1.586;2024-01-25T13:01:05;20.80;82.20
53978;DHT22;39886;47.984;-1.586;2024-01-25T13:03:32;20.80;82.20
53978;DHT22;39886;47.984;-1.586;2024-01-25T13:05:58;20.80;81.90
53978;DHT22;39886;47.984;-1.586;2024-01-25T13:08:23;20.80;81.90
53978;DHT22;39886;47.984;-1.586;2024-01-25T13:10:49;20.80;81.90
53978;DHT22;39886;47.984;-1.586;2024-01-25T13:13:15;20.90;82.60
53978;DHT22;39886;47.984;-1.586;2024-01-25T13:15:40;20.90;82.00
53978;DHT22;39886;47.984;-1.586;2024-01-25T13:18:06;20.90;82.00
53978;DHT22;39886;47.984;-1.586;2024-01-25T13:20:32;21.00;81.70
53978;DHT22;39886;47.984;-1.586;2024-01-25T13:22:57;21.00;82.00
53978;DHT22;39886;47.984;-1.586;2024-01-25T13:25:23;21.00;81.90
53978;DHT22;39886;47.984;-1.586;2024-01-25T13:27:49;21.00;81.90
53978;DHT22;39886;47.984;-1.586;2024-01-25T13:30:15;21.00;81.90
53978;DHT22;39886;47.984;-1.586;2024-01-25T13:32:40;21.00;82.00
53978;DHT22;39886;47.984;-1.586;2024-01-25T13:35:06;21.10;82.10
53978;DHT22;39886;47.984;-1.586;2024-01-25T13:37:32;21.10;82.10
53978;DHT22;39886;47.984;-1.586;2024-01-25T13:39:58;21.10;81.50
53978;DHT22;39886;47.984;-1.586;2024-01-25T13:42:24;21.20;81.70
53978;DHT22;39886;47.984;-1.586;2024-01-25T13:44:49;21.20;81.90
53978;DHT22;39886;47.984;-1.586;2024-01-25T13:47:15;21.20;81.90
53978;DHT22;39886;47.984;-1.586;2024-01-25T13:49:41;21.20;82.10
53978;DHT22;39886;47.984;-1.586;2024-01-25T13:52:06;21.20;82.00
53978;DHT22;39886;47.984;-1.586;2024-01-25T13:54:32;21.20;82.00
53978;DHT22;39886;47.984;-1.586;2024-01-25T13:57:00;21.20;82.00
53978;DHT22;39886;47.984;-1.586;2024-01-25T13:59:25;21.30;82.00
53978;DHT22;39886;47.984;-1.586;2024-01-25T14:01:51;21.30;82.00
53978;DHT22;39886;47.984;-1.586;2024-01-25T14:04:17;21.30;81.90
53978;DHT22;39886;47.984;-1.586;2024-01-25T14:06:43;21.30;81.80
53978;DHT22;39886;47.984;-1.586;2024-01-25T14:09:09;21.30;81.90
53978;DHT22;39886;47.984;-1.586;2024-01-25T14:11:35;21.40;81.90
53978;DHT22;39886;47.984;-1.586;2024-01-25T14:14:00;21.40;82.00
53978;DHT22;39886;47.984;-1.586;2024-01-25T14:16:26;21.40;81.90
53978;DHT22;39886;47.984;-1.586;2024-01-25T14:18:52;21.40;81.90
53978;DHT22;39886;47.984;-1.586;2024-01-25T14:21:17;21.40;82.20
53978;DHT22;39886;47.984;-1.586;2024-01-25T14:23:46;21.40;82.00
53978;DHT22;39886;47.984;-1.586;2024-01-25T14:26:12;21.40;81.80
53978;DHT22;39886;47.984;-1.586;2024-01-25T14:28:38;21.40;81.80
53978;DHT22;39886;47.984;-1.586;2024-01-25T14:31:03;21.40;81.90
53978;DHT22;39886;47.984;-1.586;2024-01-25T14:33:29;21.50;81.70
53978;DHT22;39886;47.984;-1.586;2024-01-25T14:35:55;21.50;81.90
53978;DHT22;39886;47.984;-1.586;2024-01-25T14:38:20;21.50;82.00
53978;DHT22;39886;47.984;-1.586;2024-01-25T14:40:46;21.50;81.80
53978;DHT22;39886;47.984;-1.586;2024-01-25T14:43:12;21.50;81.70
53978;DHT22;39886;47.984;-1.586;2024-01-25T14:45:37;21.50;81.80
53978;DHT22;39886;47.984;-1.586;2024-01-25T14:48:04;21.60;81.70
53978;DHT22;39886;47.984;-1.586;2024-01-25T14:50:30;21.60;81.50
53978;DHT22;39886;47.984;-1.586;2024-01-25T14:52:58;21.60;81.70
53978;DHT22;39886;47.984;-1.586;2024-01-25T14:55:24;21.60;81.20
53978;DHT22;39886;47.984;-1.586;2024-01-25T14:57:50;21.60;81.50
53978;DHT22;39886;47.984;-1.586;2024-01-25T15:00:16;21.60;81.70
53978;DHT22;39886;47.984;-1.586;2024-01-25T15:02:45;21.60;81.30
53978;DHT22;39886;47.984;-1.586;2024-01-25T15:05:11;21.60;81.80
53978;DHT22;39886;47.984;-1.586;2024-01-25T15:07:38;21.60;81.80
53978;DHT22;39886;47.984;-1.586;2024-01-25T15:10:05;21.60;81.90